sensor_id;sensor_type;location;lat;lon;timestamp;temperature;humidity
6078;DHT22;3067;49.470;10.394;2023-11-18T00:00:56;6.30;71.40
6078;DHT22;3067;49.470;10.394;2023-11-18T00:03:24;6.30;71.50
6078;DHT22;3067;49.470;10.394;2023-11-18T00:05:51;6.30;71.50
6078;DHT22;3067;49.470;10.394;2023-11-18T00:08:18;6.30;71.50
6078;DHT22;3067;49.470;10.394;2023-11-18T00:10:46;6.30;71.60
6078;DHT22;3067;49.470;10.394;2023-11-18T00:13:14;6.30;71.60
6078;DHT22;3067;49.470;10.394;2023-11-18T00:15:41;6.30;71.40
6078;DHT22;3067;49.470;10.394;2023-11-18T00:18:08;6.20;70.90
6078;DHT22;3067;49.470;10.394;2023-11-18T00:20:35;6.10;71.20
6078;DHT22;3067;49.470;10.394;2023-11-18T00:23:02;6.10;71.70
6078;DHT22;3067;49.470;10.394;2023-11-18T00:25:30;6.10;71.80
6078;DHT22;3067;49.470;10.394;2023-11-18T00:28:00;6.00;71.50
6078;DHT22;3067;49.470;10.394;2023-11-18T00:30:27;5.90;72.00
6078;DHT22;3067;49.470;10.394;2023-11-18T00:32:54;5.90;72.20
6078;DHT22;3067;49.470;10.394;2023-11-18T00:35:21;5.90;72.50
6078;DHT22;3067;49.470;10.394;2023-11-18T00:37:48;5.90;71.80
6078;DHT22;3067;49.470;10.394;2023-11-18T00:40:15;5.80;71.90
6078;DHT22;3067;49.470;10.394;2023-11-18T00:42:43;5.80;72.40
6078;DHT22;3067;49.470;10.394;2023-11-18T00:45:12;5.90;72.40
6078;DHT22;3067;49.470;10.394;2023-11-18T00:47:39;5.90;72.60
6078;DHT22;3067;49.470;10.394;2023-11-18T00:50:07;6.00;72.70
6078;DHT22;3067;49.470;10.394;2023-11-18T00:52:34;6.00;72.90
6078;DHT22;3067;49.470;10.394;2023-11-18T00:55:04;6.00;72.80
6078;DHT22;3067;49.470;10.394;2023-11-18T00:57:32;6.10;72.80
6078;DHT22;3067;49.470;10.394;2023-11-18T01:00:00;6.10;72.70
6078;DHT22;3067;49.470;10.394;2023-11-18T01:02:27;6.20;72.60
6078;DHT22;3067;49.470;10.394;2023-11-18T01:04:54;6.20;72.70
6078;DHT22;3067;49.470;10.394;2023-11-18T01:07:21;6.20;72.60
6078;DHT22;3067;49.470;10.394;2023-11-18T01:09:48;6.20;72.70
6078;DHT22;3067;49.470;10.394;2023-11-18T01:12:15;6.20;72.60
6078;DHT22;3067;49.470;10.394;2023-11-18T01:14:42;6.20;72.60
6078;DHT22;3067;49.470;10.394;2023-11-18T01:17:09;6.30;72.60
6078;DHT22;3067;49.470;10.394;2023-11-18T01:19:38;6.30;72.50
6078;DHT22;3067;49.470;10.394;2023-11-18T01:22:05;6.30;72.50
6078;DHT22;3067;49.470;10.394;2023-11-18T01:24:32;6.30;72.50
6078;DHT22;3067;49.470;10.394;2023-11-18T01:26:59;6.30;72.20
6078;DHT22;3067;49.470;10.394;2023-11-18T01:29:26;6.20;72.20
6078;DHT22;3067;49.470;10.394;2023-11-18T01:31:53;6.10;72.50
6078;DHT22;3067;49.470;10.394;2023-11-18T01:34:22;6.10;72.50
6078;DHT22;3067;49.470;10.394;2023-11-18T01:36:50;6.10;72.60
6078;DHT22;3067;49.470;10.394;2023-11-18T01:39:17;6.10;72.50
6078;DHT22;3067;49.470;10.394;2023-11-18T01:41:45;6.00;72.50
6078;DHT22;3067;49.470;10.394;2023-11-18T01:44:12;6.00;72.60
6078;DHT22;3067;49.470;10.394;2023-11-18T01:46:41;6.00;72.70
6078;DHT22;3067;49.470;10.394;2023-11-18T01:49:11;6.00;72.50
6078;DHT22;3067;49.470;10.394;2023-11-18T01:51:40;5.90;72.40
6078;DHT22;3067;49.470;10.394;2023-11-18T01:54:09;5.90;72.30
6078;DHT22;3067;49.470;10.394;2023-11-18T01:56:41;5.90;72.20
6078;DHT22;3067;49.470;10.394;2023-11-18T01:59:09;5.80;71.80
6078;DHT22;3067;49.470;10.394;2023-11-18T02:01:44;5.70;72.10
6078;DHT22;3067;49.470;10.394;2023-11-18T02:04:13;5.70;72.10
6078;DHT22;3067;49.470;10.394;2023-11-18T02:06:41;5.70;72.00
6078;DHT22;3067;49.470;10.394;2023-11-18T02:09:09;5.60;72.00
6078;DHT22;3067;49.470;10.394;2023-11-18T02:11:39;5.60;71.80
6078;DHT22;3067;49.470;10.394;2023-11-18T02:14:13;5.50;71.70
6078;DHT22;3067;49.470;10.394;2023-11-18T02:16:43;5.50;71.70
6078;DHT22;3067;49.470;10.394;2023-11-18T02:19:20;5.50;71.60
6078;DHT22;3067;49.470;10.394;2023-11-18T02:21:47;5.50;71.50
6078;DHT22;3067;49.470;10.394;2023-11-18T02:24:26;5.40;71.50
6078;DHT22;3067;49.470;10.394;2023-11-18T02:26:58;5.30;71.40
6078;DHT22;3067;49.470;10.394;2023-11-18T02:29:27;5.30;71.40
6078;DHT22;3067;49.470;10.394;2023-11-18T02:31:58;5.30;71.50
6078;DHT22;3067;49.470;10.394;2023-11-18T02:34:30;5.20;71.60
6078;DHT22;3067;49.470;10.394;2023-11-18T02:36:58;5.10;71.50
6078;DHT22;3067;49.470;10.394;2023-11-18T02:39:42;5.00;71.60
6078;DHT22;3067;49.470;10.394;2023-11-18T02:42:12;5.00;71.80
6078;DHT22;3067;49.470;10.394;2023-11-18T02:44:40;5.00;71.80
6078;DHT22;3067;49.470;10.394;2023-11-18T02:47:08;4.90;71.70
6078;DHT22;3067;49.470;10.394;2023-11-18T02:49:36;4.90;71.80
6078;DHT22;3067;49.470;10.394;2023-11-18T02:52:03;4.90;71.80
6078;DHT22;3067;49.470;10.394;2023-11-18T02:54:30;4.90;71.80
6078;DHT22;3067;49.470;10.394;2023-11-18T02:56:57;4.70;71.60
6078;DHT22;3067;49.470;10.394;2023-11-18T02:59:27;4.70;71.80
6078;DHT22;3067;49.470;10.394;2023-11-18T03:01:56;4.70;71.80
6078;DHT22;3067;49.470;10.394;2023-11-18T03:04:23;4.70;71.90
6078;DHT22;3067;49.470;10.394;2023-11-18T03:06:50;4.60;71.90
6078;DHT22;3067;49.470;10.394;2023-11-18T03:09:17;4.60;71.90
6078;DHT22;3067;49.470;10.394;2023-11-18T03:11:44;4.50;71.90
6078;DHT22;3067;49.470;10.394;2023-11-18T03:14:11;4.50;72.10
6078;DHT22;3067;49.470;10.394;2023-11-18T03:16:40;4.50;71.60
6078;DHT22;3067;49.470;10.394;2023-11-18T03:19:07;4.30;71.60
6078;DHT22;3067;49.470;10.394;2023-11-18T03:21:34;4.30;71.50
6078;DHT22;3067;49.470;10.394;2023-11-18T03:24:02;4.20;71.70
6078;DHT22;3067;49.470;10.394;2023-11-18T03:26:29;4.20;71.60
6078;DHT22;3067;49.470;10.394;2023-11-18T03:28:57;4.10;71.50
6078;DHT22;3067;49.470;10.394;2023-11-18T03:31:24;4.00;71.70
6078;DHT22;3067;49.470;10.394;2023-11-18T03:33:53;4.00;72.00
6078;DHT22;3067;49.470;10.394;2023-11-18T03:36:20;4.00;72.20
6078;DHT22;3067;49.470;10.394;2023-11-18T03:38:47;4.00;72.20
6078;DHT22;3067;49.470;10.394;2023-11-18T03:41:17;4.00;72.30
6078;DHT22;3067;49.470;10.394;2023-11-18T03:43:44;4.00;72.20
6078;DHT22;3067;49.470;10.394;2023-11-18T03:46:13;4.00;72.10
6078;DHT22;3067;49.470;10.394;2023-11-18T03:48:41;3.90;72.20
6078;DHT22;3067;49.470;10.394;2023-11-18T03:51:11;3.90;72.30
6078;DHT22;3067;49.470;10.394;2023-11-18T03:53:38;3.90;72.50
6078;DHT22;3067;49.470;10.394;2023-11-18T03:56:05;4.00;72.50
6078;DHT22;3067;49.470;10.394;2023-11-18T03:58:33;4.00;72.60
6078;DHT22;3067;49.470;10.394;2023-11-18T04:01:00;3.90;72.50
6078;DHT22;3067;49.470;10.394;2023-11-18T04:03:27;3.90;72.50
6078;DHT22;3067;49.470;10.394;2023-11-18T04:05:54;3.90;72.60
6078;DHT22;3067;49.470;10.394;2023-11-18T04:08:22;3.90;72.80
6078;DHT22;3067;49.470;10.394;2023-11-18T04:10:51;3.90;72.50
6078;DHT22;3067;49.470;10.394;2023-11-18T04:13:18;3.80;72.50
6078;DHT22;3067;49.470;10.394;2023-11-18T04:15:45;3.70;72.60
6078;DHT22;3067;49.470;10.394;2023-11-18T04:18:12;3.70;72.60
6078;DHT22;3067;49.470;10.394;2023-11-18T04:20:39;3.70;72.60
6078;DHT22;3067;49.470;10.394;2023-11-18T04:23:06;3.60;72.40
6078;DHT22;3067;49.470;10.394;2023-11-18T04:25:34;3.60;72.10
6078;DHT22;3067;49.470;10.394;2023-11-18T04:28:02;3.50;71.60
6078;DHT22;3067;49.470;10.394;2023-11-18T04:30:29;3.50;71.30
6078;DHT22;3067;49.470;10.394;2023-11-18T04:32:56;3.50;71.60
6078;DHT22;3067;49.470;10.394;2023-11-18T04:35:23;3.40;71.50
6078;DHT22;3067;49.470;10.394;2023-11-18T04:37:50;3.30;71.60
6078;DHT22;3067;49.470;10.394;2023-11-18T04:40:17;3.30;71.70
6078;DHT22;3067;49.470;10.394;2023-11-18T04:42:46;3.30;71.70
6078;DHT22;3067;49.470;10.394;2023-11-18T04:45:13;3.30;72.00
6078;DHT22;3067;49.470;10.394;2023-11-18T04:47:41;3.20;72.20
6078;DHT22;3067;49.470;10.394;2023-11-18T04:50:10;3.10;72.30
6078;DHT22;3067;49.470;10.394;2023-11-18T04:52:37;3.10;72.30
6078;DHT22;3067;49.470;10.394;2023-11-18T04:55:05;3.10;72.30
6078;DHT22;3067;49.470;10.394;2023-11-18T04:57:32;3.00;72.50
6078;DHT22;3067;49.470;10.394;2023-11-18T05:00:03;3.00;72.70
6078;DHT22;3067;49.470;10.394;2023-11-18T05:02:36;3.10;72.60
6078;DHT22;3067;49.470;10.394;2023-11-18T05:05:04;3.00;72.50
6078;DHT22;3067;49.470;10.394;2023-11-18T05:07:32;3.00;72.80
6078;DHT22;3067;49.470;10.394;2023-11-18T05:09:59;2.80;73.50
6078;DHT22;3067;49.470;10.394;2023-11-18T05:12:26;2.70;73.80
6078;DHT22;3067;49.470;10.394;2023-11-18T05:14:55;2.70;74.20
6078;DHT22;3067;49.470;10.394;2023-11-18T05:17:24;2.70;74.70
6078;DHT22;3067;49.470;10.394;2023-11-18T05:19:51;2.80;75.00
6078;DHT22;3067;49.470;10.394;2023-11-18T05:22:19;2.90;75.20
6078;DHT22;3067;49.470;10.394;2023-11-18T05:24:46;2.90;75.20
6078;DHT22;3067;49.470;10.394;2023-11-18T05:27:13;3.00;75.40
6078;DHT22;3067;49.470;10.394;2023-11-18T05:29:40;3.00;75.50
6078;DHT22;3067;49.470;10.394;2023-11-18T05:32:08;3.10;75.50
6078;DHT22;3067;49.470;10.394;2023-11-18T05:34:36;3.10;75.30
6078;DHT22;3067;49.470;10.394;2023-11-18T05:37:04;3.10;75.20
6078;DHT22;3067;49.470;10.394;2023-11-18T05:39:31;3.10;75.20
6078;DHT22;3067;49.470;10.394;2023-11-18T05:41:59;3.20;75.20
6078;DHT22;3067;49.470;10.394;2023-11-18T05:44:26;3.20;75.20
6078;DHT22;3067;49.470;10.394;2023-11-18T05:46:56;3.30;75.10
6078;DHT22;3067;49.470;10.394;2023-11-18T05:49:23;3.30;75.00
6078;DHT22;3067;49.470;10.394;2023-11-18T05:51:52;3.30;74.80
6078;DHT22;3067;49.470;10.394;2023-11-18T05:54:19;3.50;74.60
6078;DHT22;3067;49.470;10.394;2023-11-18T05:56:46;3.50;74.40
6078;DHT22;3067;49.470;10.394;2023-11-18T05:59:13;3.50;74.50
6078;DHT22;3067;49.470;10.394;2023-11-18T06:01:40;3.50;74.40
6078;DHT22;3067;49.470;10.394;2023-11-18T06:04:07;3.50;74.40
6078;DHT22;3067;49.470;10.394;2023-11-18T06:06:35;3.60;74.10
6078;DHT22;3067;49.470;10.394;2023-11-18T06:09:04;3.60;73.90
6078;DHT22;3067;49.470;10.394;2023-11-18T06:11:35;3.60;73.60
6078;DHT22;3067;49.470;10.394;2023-11-18T06:14:07;3.50;73.30
6078;DHT22;3067;49.470;10.394;2023-11-18T06:16:35;3.50;73.10
6078;DHT22;3067;49.470;10.394;2023-11-18T06:19:03;3.50;73.00
6078;DHT22;3067;49.470;10.394;2023-11-18T06:21:31;3.30;72.40
6078;DHT22;3067;49.470;10.394;2023-11-18T06:23:58;3.10;72.70
6078;DHT22;3067;49.470;10.394;2023-11-18T06:26:27;3.00;72.90
6078;DHT22;3067;49.470;10.394;2023-11-18T06:28:55;2.90;73.30
6078;DHT22;3067;49.470;10.394;2023-11-18T06:31:22;3.00;73.60
6078;DHT22;3067;49.470;10.394;2023-11-18T06:33:50;3.00;73.70
6078;DHT22;3067;49.470;10.394;2023-11-18T06:36:18;3.00;73.70
6078;DHT22;3067;49.470;10.394;2023-11-18T06:38:46;3.00;73.70
6078;DHT22;3067;49.470;10.394;2023-11-18T06:41:15;3.00;73.90
6078;DHT22;3067;49.470;10.394;2023-11-18T06:43:45;3.00;74.00
6078;DHT22;3067;49.470;10.394;2023-11-18T06:46:23;2.80;74.80
6078;DHT22;3067;49.470;10.394;2023-11-18T06:48:51;2.60;75.50
6078;DHT22;3067;49.470;10.394;2023-11-18T06:51:20;2.60;75.80
6078;DHT22;3067;49.470;10.394;2023-11-18T06:53:49;2.50;76.00
6078;DHT22;3067;49.470;10.394;2023-11-18T06:56:16;2.50;76.20
6078;DHT22;3067;49.470;10.394;2023-11-18T06:58:45;2.50;76.40
6078;DHT22;3067;49.470;10.394;2023-11-18T07:01:13;2.50;76.50
6078;DHT22;3067;49.470;10.394;2023-11-18T07:03:40;2.60;76.70
6078;DHT22;3067;49.470;10.394;2023-11-18T07:06:08;2.60;76.90
6078;DHT22;3067;49.470;10.394;2023-11-18T07:08:35;2.70;76.90
6078;DHT22;3067;49.470;10.394;2023-11-18T07:11:03;2.70;77.10
6078;DHT22;3067;49.470;10.394;2023-11-18T07:13:31;2.80;77.20
6078;DHT22;3067;49.470;10.394;2023-11-18T07:16:01;2.90;77.20
6078;DHT22;3067;49.470;10.394;2023-11-18T07:18:30;3.00;77.40
6078;DHT22;3067;49.470;10.394;2023-11-18T07:20:58;3.10;77.30
6078;DHT22;3067;49.470;10.394;2023-11-18T07:23:26;3.10;77.30
6078;DHT22;3067;49.470;10.394;2023-11-18T07:25:53;3.30;77.10
6078;DHT22;3067;49.470;10.394;2023-11-18T07:28:20;3.30;77.00
6078;DHT22;3067;49.470;10.394;2023-11-18T07:30:47;3.40;77.10
6078;DHT22;3067;49.470;10.394;2023-11-18T07:33:16;3.50;77.10
6078;DHT22;3067;49.470;10.394;2023-11-18T07:35:45;3.60;77.10
6078;DHT22;3067;49.470;10.394;2023-11-18T07:38:14;3.70;77.10
6078;DHT22;3067;49.470;10.394;2023-11-18T07:40:41;3.80;76.80
6078;DHT22;3067;49.470;10.394;2023-11-18T07:43:11;3.90;76.70
6078;DHT22;3067;49.470;10.394;2023-11-18T07:45:39;3.90;76.20
6078;DHT22;3067;49.470;10.394;2023-11-18T07:48:06;4.00;76.20
6078;DHT22;3067;49.470;10.394;2023-11-18T07:50:35;4.00;76.10
6078;DHT22;3067;49.470;10.394;2023-11-18T07:53:03;4.10;76.00
6078;DHT22;3067;49.470;10.394;2023-11-18T07:55:32;4.20;75.90
6078;DHT22;3067;49.470;10.394;2023-11-18T07:58:00;4.20;75.80
6078;DHT22;3067;49.470;10.394;2023-11-18T08:00:27;4.30;75.80
6078;DHT22;3067;49.470;10.394;2023-11-18T08:02:56;4.30;75.60
6078;DHT22;3067;49.470;10.394;2023-11-18T08:05:25;4.40;75.70
6078;DHT22;3067;49.470;10.394;2023-11-18T08:07:55;4.50;75.40
6078;DHT22;3067;49.470;10.394;2023-11-18T08:10:22;4.50;75.40
6078;DHT22;3067;49.470;10.394;2023-11-18T08:12:50;4.50;75.30
6078;DHT22;3067;49.470;10.394;2023-11-18T08:15:19;4.50;75.40
6078;DHT22;3067;49.470;10.394;2023-11-18T08:17:46;4.60;75.50
6078;DHT22;3067;49.470;10.394;2023-11-18T08:20:14;4.60;75.50
6078;DHT22;3067;49.470;10.394;2023-11-18T08:22:41;4.70;75.60
6078;DHT22;3067;49.470;10.394;2023-11-18T08:25:11;4.80;75.70
6078;DHT22;3067;49.470;10.394;2023-11-18T08:27:40;4.90;75.70
6078;DHT22;3067;49.470;10.394;2023-11-18T08:30:08;5.00;75.70
6078;DHT22;3067;49.470;10.394;2023-11-18T08:32:37;5.00;75.50
6078;DHT22;3067;49.470;10.394;2023-11-18T08:35:05;5.00;75.40
6078;DHT22;3067;49.470;10.394;2023-11-18T08:37:33;5.10;75.20
6078;DHT22;3067;49.470;10.394;2023-11-18T08:40:02;5.10;75.00
6078;DHT22;3067;49.470;10.394;2023-11-18T08:42:30;5.10;75.10
6078;DHT22;3067;49.470;10.394;2023-11-18T08:44:59;5.10;75.30
6078;DHT22;3067;49.470;10.394;2023-11-18T08:47:27;5.20;75.20
6078;DHT22;3067;49.470;10.394;2023-11-18T08:49:54;5.20;75.30
6078;DHT22;3067;49.470;10.394;2023-11-18T08:52:21;5.20;75.60
6078;DHT22;3067;49.470;10.394;2023-11-18T08:54:51;5.30;75.70
6078;DHT22;3067;49.470;10.394;2023-11-18T08:57:36;5.40;75.80
6078;DHT22;3067;49.470;10.394;2023-11-18T09:00:18;5.50;75.70
6078;DHT22;3067;49.470;10.394;2023-11-18T09:02:58;5.60;75.80
6078;DHT22;3067;49.470;10.394;2023-11-18T09:05:26;5.70;75.90
6078;DHT22;3067;49.470;10.394;2023-11-18T09:07:57;5.80;75.90
6078;DHT22;3067;49.470;10.394;2023-11-18T09:10:26;6.00;75.70
6078;DHT22;3067;49.470;10.394;2023-11-18T09:12:55;6.10;75.50
6078;DHT22;3067;49.470;10.394;2023-11-18T09:15:22;6.20;75.30
6078;DHT22;3067;49.470;10.394;2023-11-18T09:17:49;6.40;75.10
6078;DHT22;3067;49.470;10.394;2023-11-18T09:20:18;6.50;75.00
6078;DHT22;3067;49.470;10.394;2023-11-18T09:22:48;6.60;74.70
6078;DHT22;3067;49.470;10.394;2023-11-18T09:25:15;6.70;74.60
6078;DHT22;3067;49.470;10.394;2023-11-18T09:27:43;6.80;74.30
6078;DHT22;3067;49.470;10.394;2023-11-18T09:30:12;6.90;74.20
6078;DHT22;3067;49.470;10.394;2023-11-18T09:32:40;6.90;74.00
6078;DHT22;3067;49.470;10.394;2023-11-18T09:35:08;7.00;73.90
6078;DHT22;3067;49.470;10.394;2023-11-18T09:37:38;7.10;73.70
6078;DHT22;3067;49.470;10.394;2023-11-18T09:40:07;7.20;73.50
6078;DHT22;3067;49.470;10.394;2023-11-18T09:42:37;7.20;73.20
6078;DHT22;3067;49.470;10.394;2023-11-18T09:45:05;7.20;73.70
6078;DHT22;3067;49.470;10.394;2023-11-18T09:47:43;7.20;74.00
6078;DHT22;3067;49.470;10.394;2023-11-18T09:50:16;7.20;73.90
6078;DHT22;3067;49.470;10.394;2023-11-18T09:52:48;7.30;74.00
6078;DHT22;3067;49.470;10.394;2023-11-18T09:55:24;7.40;74.10
6078;DHT22;3067;49.470;10.394;2023-11-18T09:57:57;7.40;74.10
6078;DHT22;3067;49.470;10.394;2023-11-18T10:00:30;7.50;74.00
6078;DHT22;3067;49.470;10.394;2023-11-18T10:03:00;7.50;74.10
6078;DHT22;3067;49.470;10.394;2023-11-18T10:05:29;7.50;74.00
6078;DHT22;3067;49.470;10.394;2023-11-18T10:07:56;7.60;73.70
6078;DHT22;3067;49.470;10.394;2023-11-18T10:10:24;7.60;73.40
6078;DHT22;3067;49.470;10.394;2023-11-18T10:13:01;7.50;72.90
6078;DHT22;3067;49.470;10.394;2023-11-18T10:15:34;7.50;72.20
6078;DHT22;3067;49.470;10.394;2023-11-18T10:18:03;7.50;72.30
6078;DHT22;3067;49.470;10.394;2023-11-18T10:20:51;7.50;72.40
6078;DHT22;3067;49.470;10.394;2023-11-18T10:23:20;7.50;72.30
6078;DHT22;3067;49.470;10.394;2023-11-18T10:25:48;7.50;72.00
6078;DHT22;3067;49.470;10.394;2023-11-18T10:28:23;7.50;72.20
6078;DHT22;3067;49.470;10.394;2023-11-18T10:30:50;7.50;72.10
6078;DHT22;3067;49.470;10.394;2023-11-18T10:33:18;7.60;72.20
6078;DHT22;3067;49.470;10.394;2023-11-18T10:35:50;7.70;72.00
6078;DHT22;3067;49.470;10.394;2023-11-18T10:38:22;7.70;70.20
6078;DHT22;3067;49.470;10.394;2023-11-18T10:40:53;7.70;70.10
6078;DHT22;3067;49.470;10.394;2023-11-18T10:43:21;7.80;69.70
6078;DHT22;3067;49.470;10.394;2023-11-18T10:45:51;7.80;69.80
6078;DHT22;3067;49.470;10.394;2023-11-18T10:48:20;7.80;69.20
6078;DHT22;3067;49.470;10.394;2023-11-18T10:50:47;7.70;69.30
6078;DHT22;3067;49.470;10.394;2023-11-18T10:53:18;7.60;69.40
6078;DHT22;3067;49.470;10.394;2023-11-18T10:55:47;7.60;69.20
6078;DHT22;3067;49.470;10.394;2023-11-18T10:58:16;7.60;69.30
6078;DHT22;3067;49.470;10.394;2023-11-18T11:00:47;7.60;68.10
6078;DHT22;3067;49.470;10.394;2023-11-18T11:03:15;7.50;67.70
6078;DHT22;3067;49.470;10.394;2023-11-18T11:05:45;7.50;67.50
6078;DHT22;3067;49.470;10.394;2023-11-18T11:08:14;7.50;67.50
6078;DHT22;3067;49.470;10.394;2023-11-18T11:10:42;7.50;68.20
6078;DHT22;3067;49.470;10.394;2023-11-18T11:13:10;7.50;68.60
6078;DHT22;3067;49.470;10.394;2023-11-18T11:15:41;7.50;68.70
6078;DHT22;3067;49.470;10.394;2023-11-18T11:18:12;7.50;68.20
6078;DHT22;3067;49.470;10.394;2023-11-18T11:20:57;7.60;68.30
6078;DHT22;3067;49.470;10.394;2023-11-18T11:23:38;7.60;67.80
6078;DHT22;3067;49.470;10.394;2023-11-18T11:26:21;7.80;68.30
6078;DHT22;3067;49.470;10.394;2023-11-18T11:28:59;8.00;67.90
6078;DHT22;3067;49.470;10.394;2023-11-18T11:31:34;8.10;66.10
6078;DHT22;3067;49.470;10.394;2023-11-18T11:34:05;8.20;66.60
6078;DHT22;3067;49.470;10.394;2023-11-18T11:36:37;8.30;66.40
6078;DHT22;3067;49.470;10.394;2023-11-18T11:39:08;8.50;66.20
6078;DHT22;3067;49.470;10.394;2023-11-18T11:41:44;8.60;65.50
6078;DHT22;3067;49.470;10.394;2023-11-18T11:44:13;8.70;65.20
6078;DHT22;3067;49.470;10.394;2023-11-18T11:46:40;8.60;65.10
6078;DHT22;3067;49.470;10.394;2023-11-18T11:49:10;8.60;64.20
6078;DHT22;3067;49.470;10.394;2023-11-18T11:51:47;8.60;65.00
6078;DHT22;3067;49.470;10.394;2023-11-18T11:54:20;8.60;63.80
6078;DHT22;3067;49.470;10.394;2023-11-18T11:56:48;8.60;64.70
6078;DHT22;3067;49.470;10.394;2023-11-18T11:59:55;8.60;64.30
6078;DHT22;3067;49.470;10.394;2023-11-18T12:02:23;8.50;64.20
6078;DHT22;3067;49.470;10.394;2023-11-18T12:04:55;8.50;64.30
6078;DHT22;3067;49.470;10.394;2023-11-18T12:07:26;8.60;64.20
6078;DHT22;3067;49.470;10.394;2023-11-18T12:09:57;8.50;64.40
6078;DHT22;3067;49.470;10.394;2023-11-18T12:12:27;8.50;64.30
6078;DHT22;3067;49.470;10.394;2023-11-18T12:14:56;8.40;64.30
6078;DHT22;3067;49.470;10.394;2023-11-18T12:18:09;8.30;64.00
6078;DHT22;3067;49.470;10.394;2023-11-18T12:20:39;8.50;65.20
6078;DHT22;3067;49.470;10.394;2023-11-18T12:23:09;8.60;64.90
6078;DHT22;3067;49.470;10.394;2023-11-18T12:25:41;8.80;64.60
6078;DHT22;3067;49.470;10.394;2023-11-18T12:28:14;8.70;64.70
6078;DHT22;3067;49.470;10.394;2023-11-18T12:30:45;8.70;65.00
6078;DHT22;3067;49.470;10.394;2023-11-18T12:33:18;8.60;63.40
6078;DHT22;3067;49.470;10.394;2023-11-18T12:42:02;9.00;63.60
6078;DHT22;3067;49.470;10.394;2023-11-18T12:44:40;9.00;62.00
6078;DHT22;3067;49.470;10.394;2023-11-18T12:47:14;8.90;62.30
6078;DHT22;3067;49.470;10.394;2023-11-18T12:49:44;8.90;63.40
6078;DHT22;3067;49.470;10.394;2023-11-18T12:52:16;9.00;63.20
6078;DHT22;3067;49.470;10.394;2023-11-18T12:54:46;9.00;63.60
6078;DHT22;3067;49.470;10.394;2023-11-18T12:57:16;9.20;62.10
6078;DHT22;3067;49.470;10.394;2023-11-18T12:59:43;9.00;63.00
6078;DHT22;3067;49.470;10.394;2023-11-18T13:02:12;9.00;61.70
6078;DHT22;3067;49.470;10.394;2023-11-18T13:04:45;9.10;61.40
6078;DHT22;3067;49.470;10.394;2023-11-18T13:07:13;9.10;61.90
6078;DHT22;3067;49.470;10.394;2023-11-18T13:09:40;9.10;61.50
6078;DHT22;3067;49.470;10.394;2023-11-18T13:12:12;9.20;61.80
6078;DHT22;3067;49.470;10.394;2023-11-18T13:14:41;9.00;61.40
6078;DHT22;3067;49.470;10.394;2023-11-18T13:17:10;9.00;61.90
6078;DHT22;3067;49.470;10.394;2023-11-18T13:19:38;8.80;62.10
6078;DHT22;3067;49.470;10.394;2023-11-18T13:22:07;8.60;63.40
6078;DHT22;3067;49.470;10.394;2023-11-18T13:24:34;8.50;64.50
6078;DHT22;3067;49.470;10.394;2023-11-18T13:27:02;8.50;63.70
6078;DHT22;3067;49.470;10.394;2023-11-18T13:29:32;8.30;64.60
6078;DHT22;3067;49.470;10.394;2023-11-18T13:32:00;8.20;65.10
6078;DHT22;3067;49.470;10.394;2023-11-18T13:34:30;8.00;65.20
6078;DHT22;3067;49.470;10.394;2023-11-18T13:36:58;7.80;65.30
6078;DHT22;3067;49.470;10.394;2023-11-18T13:39:26;7.80;66.00
6078;DHT22;3067;49.470;10.394;2023-11-18T13:41:54;7.70;66.50
6078;DHT22;3067;49.470;10.394;2023-11-18T13:44:35;7.60;67.10
6078;DHT22;3067;49.470;10.394;2023-11-18T13:47:05;7.60;67.50
6078;DHT22;3067;49.470;10.394;2023-11-18T13:49:32;7.60;66.90
6078;DHT22;3067;49.470;10.394;2023-11-18T13:52:00;7.60;67.00
6078;DHT22;3067;49.470;10.394;2023-11-18T13:54:28;7.60;67.50
6078;DHT22;3067;49.470;10.394;2023-11-18T13:56:56;7.60;66.40
6078;DHT22;3067;49.470;10.394;2023-11-18T13:59:25;7.70;66.70
6078;DHT22;3067;49.470;10.394;2023-11-18T14:01:57;7.60;66.70
6078;DHT22;3067;49.470;10.394;2023-11-18T14:04:28;7.70;65.80
6078;DHT22;3067;49.470;10.394;2023-11-18T14:06:58;7.80;66.30
6078;DHT22;3067;49.470;10.394;2023-11-18T14:09:25;8.00;66.40
6078;DHT22;3067;49.470;10.394;2023-11-18T14:11:52;8.00;66.20
6078;DHT22;3067;49.470;10.394;2023-11-18T14:14:20;8.00;65.20
6078;DHT22;3067;49.470;10.394;2023-11-18T14:16:48;8.20;65.30
6078;DHT22;3067;49.470;10.394;2023-11-18T14:19:18;8.20;65.40
6078;DHT22;3067;49.470;10.394;2023-11-18T14:21:45;8.10;65.90
6078;DHT22;3067;49.470;10.394;2023-11-18T14:24:12;8.10;65.80
6078;DHT22;3067;49.470;10.394;2023-11-18T14:26:39;8.20;66.10
6078;DHT22;3067;49.470;10.394;2023-11-18T14:29:07;8.20;66.20
6078;DHT22;3067;49.470;10.394;2023-11-18T14:31:34;8.20;66.20
6078;DHT22;3067;49.470;10.394;2023-11-18T14:34:01;8.20;66.50
6078;DHT22;3067;49.470;10.394;2023-11-18T14:36:31;8.20;66.60
6078;DHT22;3067;49.470;10.394;2023-11-18T14:38:58;8.30;66.50
6078;DHT22;3067;49.470;10.394;2023-11-18T14:41:25;8.10;66.70
6078;DHT22;3067;49.470;10.394;2023-11-18T14:43:52;7.90;67.00
6078;DHT22;3067;49.470;10.394;2023-11-18T14:46:19;7.80;67.50
6078;DHT22;3067;49.470;10.394;2023-11-18T14:48:46;7.80;67.40
6078;DHT22;3067;49.470;10.394;2023-11-18T14:51:14;7.80;67.70
6078;DHT22;3067;49.470;10.394;2023-11-18T14:53:43;7.80;67.70
6078;DHT22;3067;49.470;10.394;2023-11-18T14:56:10;7.70;67.90
6078;DHT22;3067;49.470;10.394;2023-11-18T14:58:37;7.60;68.10
6078;DHT22;3067;49.470;10.394;2023-11-18T15:01:04;7.60;68.10
6078;DHT22;3067;49.470;10.394;2023-11-18T15:03:33;7.60;68.00
6078;DHT22;3067;49.470;10.394;2023-11-18T15:06:01;7.60;68.50
6078;DHT22;3067;49.470;10.394;2023-11-18T15:08:28;7.50;68.70
6078;DHT22;3067;49.470;10.394;2023-11-18T15:10:57;7.50;69.00
6078;DHT22;3067;49.470;10.394;2023-11-18T15:13:24;7.50;68.80
6078;DHT22;3067;49.470;10.394;2023-11-18T15:15:51;7.50;68.80
6078;DHT22;3067;49.470;10.394;2023-11-18T15:18:18;7.40;68.90
6078;DHT22;3067;49.470;10.394;2023-11-18T15:20:46;7.20;69.70
6078;DHT22;3067;49.470;10.394;2023-11-18T15:23:15;7.20;69.80
6078;DHT22;3067;49.470;10.394;2023-11-18T15:25:42;7.20;70.10
6078;DHT22;3067;49.470;10.394;2023-11-18T15:28:11;7.20;70.00
6078;DHT22;3067;49.470;10.394;2023-11-18T15:30:40;7.20;70.00
6078;DHT22;3067;49.470;10.394;2023-11-18T15:33:07;7.10;69.70
6078;DHT22;3067;49.470;10.394;2023-11-18T15:35:35;7.10;69.90
6078;DHT22;3067;49.470;10.394;2023-11-18T15:38:03;7.10;69.90
6078;DHT22;3067;49.470;10.394;2023-11-18T15:40:34;7.20;69.90
6078;DHT22;3067;49.470;10.394;2023-11-18T15:43:02;7.40;69.60
6078;DHT22;3067;49.470;10.394;2023-11-18T15:45:33;7.40;69.30
6078;DHT22;3067;49.470;10.394;2023-11-18T15:48:00;7.50;68.90
6078;DHT22;3067;49.470;10.394;2023-11-18T15:50:31;7.60;68.80
6078;DHT22;3067;49.470;10.394;2023-11-18T15:53:03;7.80;68.60
6078;DHT22;3067;49.470;10.394;2023-11-18T15:55:31;7.80;68.00
6078;DHT22;3067;49.470;10.394;2023-11-18T15:57:58;7.60;67.50
6078;DHT22;3067;49.470;10.394;2023-11-18T16:00:26;7.50;68.10
6078;DHT22;3067;49.470;10.394;2023-11-18T16:02:56;7.50;67.70
6078;DHT22;3067;49.470;10.394;2023-11-18T16:05:25;7.50;67.50
6078;DHT22;3067;49.470;10.394;2023-11-18T16:07:53;7.50;67.50
6078;DHT22;3067;49.470;10.394;2023-11-18T16:10:21;7.40;67.90
6078;DHT22;3067;49.470;10.394;2023-11-18T16:12:49;7.40;68.00
6078;DHT22;3067;49.470;10.394;2023-11-18T16:15:17;7.40;68.60
6078;DHT22;3067;49.470;10.394;2023-11-18T16:17:45;7.20;69.20
6078;DHT22;3067;49.470;10.394;2023-11-18T16:20:13;7.00;70.60